Time;durP1;ratioP1;P1;durP2;ratioP2;P2;SDS_P1;SDS_P2;PMS_P1;PMS_P2;Temp;Humidity;BMP_temperature;BMP_pressure;BME280_temperature;BME280_humidity;BME280_pressure;Samples;Min_cycle;Max_cycle;Signal;HPM_P1;HPM_P2
2023/07/15 00:01:09;;;;;;;1999.90;999.90;;;20.30;99.90;;;;;;4806790;29;20384;-66
2023/07/15 00:03:35;;;;;;;1999.90;999.90;;;20.20;99.90;;;;;;4806938;29;20046;-68
2023/07/15 00:06:01;;;;;;;1999.90;999.90;;;20.30;99.90;;;;;;4806803;29;20054;-67
2023/07/15 00:08:27;;;;;;;1999.90;999.90;;;20.30;99.90;;;;;;4806607;29;20516;-67
2023/07/15 00:10:54;;;;;;;1999.90;999.90;;;20.20;99.90;;;;;;4820663;29;20547;-67
2023/07/15 00:13:20;;;;;;;1999.90;999.90;;;20.20;99.90;;;;;;4805671;29;20112;-67
2023/07/15 00:15:50;;;;;;;1999.90;999.90;;;20.20;99.90;;;;;;4806309;29;20058;-67
2023/07/15 00:18:17;;;;;;;1999.90;999.90;;;20.20;99.90;;;;;;4807069;29;20039;-67
2023/07/15 00:20:44;;;;;;;1999.90;999.90;;;20.20;99.90;;;;;;4806987;29;20055;-67
2023/07/15 00:23:26;;;;;;;1999.90;999.90;;;20.20;99.90;;;;;;4805757;29;20116;-67
2023/07/15 00:26:09;;;;;;;1999.90;999.90;;;20.20;99.90;;;;;;4807415;29;20183;-68
2023/07/15 00:28:36;;;;;;;1999.90;999.90;;;20.20;99.90;;;;;;4777512;29;20142;-68
2023/07/15 00:31:01;;;;;;;1999.90;999.90;;;20.20;99.90;;;;;;4805486;29;20188;-68
2023/07/15 00:33:28;;;;;;;1999.90;999.90;;;20.20;99.90;;;;;;4806417;29;20137;-68
2023/07/15 00:35:53;;;;;;;1999.90;999.90;;;20.20;99.90;;;;;;4805707;29;20059;-68
2023/07/15 00:38:19;;;;;;;1999.90;999.90;;;20.20;99.90;;;;;;4807536;29;20054;-68
2023/07/15 00:40:47;;;;;;;1999.90;999.90;;;20.20;99.90;;;;;;4812345;29;20555;-68
2023/07/15 00:43:50;;;;;;;1999.90;999.90;;;20.20;99.90;;;;;;4811781;29;20067;-68
2023/07/15 00:46:21;;;;;;;1999.90;999.90;;;20.20;99.90;;;;;;4812422;29;20058;-68
2023/07/15 00:49:15;;;;;;;1999.90;999.90;;;20.20;99.90;;;;;;4811174;29;20153;-68
2023/07/15 00:51:48;;;;;;;1999.90;999.90;;;20.20;99.90;;;;;;4812150;29;20426;-68
2023/07/15 00:54:14;;;;;;;1999.90;999.90;;;20.10;99.90;;;;;;4811457;29;20119;-69
2023/07/15 00:56:42;;;;;;;1999.90;999.90;;;20.10;99.90;;;;;;4811323;29;20556;-68
2023/07/15 00:59:10;;;;;;;1999.90;999.90;;;20.10;99.90;;;;;;4812430;29;20069;-68
2023/07/15 01:01:36;;;;;;;1999.90;999.90;;;20.10;99.90;;;;;;4811471;29;20050;-68
2023/07/15 01:04:02;;;;;;;1999.90;999.90;;;20.10;99.90;;;;;;4811244;29;20537;-68
2023/07/15 01:06:28;;;;;;;1999.90;999.90;;;20.10;99.90;;;;;;4812314;29;20047;-69
2023/07/15 01:08:54;;;;;;;1999.90;999.90;;;20.10;99.90;;;;;;4812404;29;20050;-68
2023/07/15 01:11:20;;;;;;;1999.90;999.90;;;20.10;99.90;;;;;;4796095;29;20043;-68
2023/07/15 01:13:47;;;;;;;1999.90;999.90;;;20.10;99.90;;;;;;4812386;29;20084;-68
2023/07/15 01:16:13;;;;;;;1999.90;999.90;;;20.10;99.90;;;;;;4812217;29;20150;-68
2023/07/15 01:18:38;;;;;;;1999.90;999.90;;;20.10;99.90;;;;;;4812312;29;20137;-68
2023/07/15 01:21:05;;;;;;;1999.90;999.90;;;20.10;99.90;;;;;;4812281;29;20055;-68
2023/07/15 01:23:30;;;;;;;1999.90;999.90;;;20.10;99.90;;;;;;4811317;29;20063;-68
2023/07/15 01:25:57;;;;;;;1999.90;999.90;;;20.10;99.90;;;;;;4812206;29;20062;-69
2023/07/15 01:28:23;;;;;;;1999.90;999.90;;;20.10;99.90;;;;;;4810922;29;20149;-68
2023/07/15 01:30:49;;;;;;;1999.90;999.90;;;20.10;99.90;;;;;;4812254;29;20062;-68
2023/07/15 01:33:15;;;;;;;1999.90;999.90;;;20.10;99.90;;;;;;4826348;29;20050;-68
2023/07/15 01:35:46;;;;;;;1999.90;999.90;;;20.10;99.90;;;;;;4811200;29;20123;-68
2023/07/15 01:38:12;;;;;;;1999.90;999.90;;;20.10;99.90;;;;;;4796742;29;20054;-68
2023/07/15 01:40:38;;;;;;;1999.90;999.90;;;20.10;99.90;;;;;;4812625;29;20055;-68
2023/07/15 01:43:04;;;;;;;1999.90;999.90;;;20.10;99.90;;;;;;4796138;29;20061;-68
2023/07/15 01:45:30;;;;;;;1999.90;999.90;;;20.10;99.90;;;;;;4812568;29;20141;-69
2023/07/15 01:47:56;;;;;;;1999.90;999.90;;;20.10;99.90;;;;;;4810952;29;20055;-69
2023/07/15 01:50:22;;;;;;;1999.90;999.90;;;20.20;99.90;;;;;;4809243;29;20119;-69
2023/07/15 01:52:48;;;;;;;1999.90;999.90;;;20.10;99.90;;;;;;4809242;29;20133;-68
2023/07/15 01:55:14;;;;;;;1999.90;999.90;;;20.20;99.90;;;;;;4809102;29;20082;-69
2023/07/15 01:57:40;;;;;;;1999.90;999.90;;;20.10;99.90;;;;;;4809089;29;20107;-68
2023/07/15 02:00:06;;;;;;;1999.90;999.90;;;20.10;99.90;;;;;;4823651;29;20389;-68
2023/07/15 02:02:32;;;;;;;1999.90;999.90;;;20.20;99.90;;;;;;4809091;29;20389;-68
2023/07/15 02:04:57;;;;;;;1999.90;999.90;;;20.10;99.90;;;;;;4808112;29;20055;-69
2023/07/15 02:07:23;;;;;;;1999.90;999.90;;;20.10;99.90;;;;;;4809126;29;20051;-69
2023/07/15 02:09:49;;;;;;;1999.90;999.90;;;20.20;99.90;;;;;;4807975;29;20051;-68
2023/07/15 02:12:14;;;;;;;1999.90;999.90;;;20.10;99.90;;;;;;4808251;29;20101;-69
2023/07/15 02:14:40;;;;;;;1999.90;999.90;;;20.10;99.90;;;;;;4822917;29;20062;-69
2023/07/15 02:17:06;;;;;;;1999.90;999.90;;;20.20;99.90;;;;;;4808741;29;20054;-69
2023/07/15 02:19:32;;;;;;;1999.90;999.90;;;20.10;99.90;;;;;;4807754;29;20050;-69
2023/07/15 02:21:58;;;;;;;1999.90;999.90;;;20.10;99.90;;;;;;4822752;29;20055;-69
2023/07/15 02:24:24;;;;;;;1999.90;999.90;;;20.10;99.90;;;;;;4807849;29;20524;-68
2023/07/15 02:26:50;;;;;;;1999.90;999.90;;;20.10;99.90;;;;;;4809126;29;20161;-68
2023/07/15 02:29:16;;;;;;;1999.90;999.90;;;20.10;99.90;;;;;;4807678;29;20054;-68
2023/07/15 02:31:42;;;;;;;1999.90;999.90;;;20.10;99.90;;;;;;4808569;29;20090;-68
2023/07/15 02:34:08;;;;;;;1999.90;999.90;;;20.10;99.90;;;;;;4822710;29;20055;-68
2023/07/15 02:36:35;;;;;;;1999.90;999.90;;;20.10;99.90;;;;;;4808230;29;20043;-69
2023/07/15 02:39:01;;;;;;;1999.90;999.90;;;20.10;99.90;;;;;;4808297;29;20094;-68
2023/07/15 02:41:26;;;;;;;1999.90;999.90;;;20.10;99.90;;;;;;4808873;29;20440;-68
2023/07/15 02:43:52;;;;;;;1999.90;999.90;;;20.20;99.90;;;;;;4808864;29;20131;-68
2023/07/15 02:46:18;;;;;;;1999.90;999.90;;;20.10;99.90;;;;;;4807569;29;20058;-69
2023/07/15 02:48:43;;;;;;;1999.90;999.90;;;20.10;99.90;;;;;;4821911;29;20113;-69
2023/07/15 02:51:09;;;;;;;1999.90;999.90;;;20.10;99.90;;;;;;4808715;29;20153;-68
2023/07/15 02:53:35;;;;;;;1999.90;999.90;;;20.10;99.90;;;;;;4808022;29;20050;-69
2023/07/15 02:56:00;;;;;;;1999.90;999.90;;;20.10;99.90;;;;;;4807891;29;20061;-69
2023/07/15 02:58:26;;;;;;;1999.90;999.90;;;20.00;99.90;;;;;;4808463;29;20132;-69
2023/07/15 03:00:52;;;;;;;1999.90;999.90;;;20.00;99.90;;;;;;4808113;29;20523;-68
2023/07/15 03:03:18;;;;;;;1999.90;999.90;;;20.00;99.90;;;;;;4806902;29;20054;-68
2023/07/15 03:05:49;;;;;;;1999.90;999.90;;;20.00;99.90;;;;;;4806517;29;20086;-68
2023/07/15 03:08:14;;;;;;;1999.90;999.90;;;20.00;99.90;;;;;;4807808;29;20061;-68
2023/07/15 03:10:44;;;;;;;1999.90;999.90;;;19.90;99.90;;;;;;4807845;29;20051;-69
2023/07/15 03:13:10;;;;;;;1999.90;999.90;;;19.90;99.90;;;;;;4808034;29;20062;-68
2023/07/15 03:15:36;;;;;;;1999.90;999.90;;;19.90;99.90;;;;;;4807728;29;20054;-69
2023/07/15 03:18:02;;;;;;;1999.90;999.90;;;19.90;99.90;;;;;;4821551;29;20105;-69
2023/07/15 03:20:29;;;;;;;1999.90;999.90;;;19.90;99.90;;;;;;4806834;29;20111;-69
2023/07/15 03:22:55;;;;;;;1999.90;999.90;;;19.90;99.90;;;;;;4807547;29;20373;-69
2023/07/15 03:25:21;;;;;;;1999.90;999.90;;;19.90;99.90;;;;;;4807482;29;20093;-69
2023/07/15 03:27:50;;;;;;;1999.90;999.90;;;19.80;99.90;;;;;;4808060;29;20166;-69
2023/07/15 03:30:17;;;;;;;1999.90;999.90;;;19.90;99.90;;;;;;4807433;29;20046;-69
2023/07/15 03:32:44;;;;;;;1999.90;999.90;;;19.80;99.90;;;;;;4806408;29;20084;-69
2023/07/15 03:35:10;;;;;;;1999.90;999.90;;;19.80;99.90;;;;;;4807886;29;20051;-69
2023/07/15 03:37:38;;;;;;;1999.90;999.90;;;19.70;99.90;;;;;;4806823;29;20070;-69
2023/07/15 03:40:07;;;;;;;1999.90;999.90;;;19.70;99.90;;;;;;4807020;29;20050;-69
2023/07/15 03:42:33;;;;;;;1999.90;999.90;;;19.70;99.90;;;;;;4806532;29;20506;-69
2023/07/15 03:44:58;;;;;;;1999.90;999.90;;;19.60;99.90;;;;;;4807270;29;20054;-69
2023/07/15 03:47:24;;;;;;;1999.90;999.90;;;19.60;99.90;;;;;;4806886;29;20553;-70
2023/07/15 03:49:50;;;;;;;1999.90;999.90;;;19.60;99.90;;;;;;4807071;29;20069;-69
2023/07/15 03:52:16;;;;;;;1999.90;999.90;;;19.60;99.90;;;;;;4822164;29;20100;-68
2023/07/15 03:54:42;;;;;;;1999.90;999.90;;;19.60;99.90;;;;;;4807226;29;20093;-69
2023/07/15 03:57:08;;;;;;;1999.90;999.90;;;19.50;99.90;;;;;;4805609;29;20047;-69
2023/07/15 03:59:34;;;;;;;1999.90;999.90;;;19.60;99.90;;;;;;4806920;29;20062;-69
2023/07/15 04:01:59;;;;;;;1999.90;999.90;;;19.60;99.90;;;;;;4806057;29;20107;-69
2023/07/15 04:04:25;;;;;;;1999.90;999.90;;;19.50;99.90;;;;;;4806955;29;20078;-68
2023/07/15 04:06:51;;;;;;;1999.90;999.90;;;19.50;99.90;;;;;;4807496;29;20131;-68
2023/07/15 04:09:17;;;;;;;1999.90;999.90;;;19.50;99.90;;;;;;4806769;29;20058;-68
2023/07/15 04:11:43;;;;;;;1999.90;999.90;;;19.50;99.90;;;;;;4806726;29;20108;-69
2023/07/15 04:14:09;;;;;;;1999.90;999.90;;;19.50;99.90;;;;;;4806402;29;20141;-69
2023/07/15 04:16:35;;;;;;;1999.90;999.90;;;19.50;99.90;;;;;;4805598;29;20154;-69
2023/07/15 04:19:01;;;;;;;1999.90;999.90;;;19.40;99.90;;;;;;4806647;29;20061;-69
2023/07/15 04:21:26;;;;;;;1999.90;999.90;;;19.40;99.90;;;;;;4806995;29;20112;-69
2023/07/15 04:23:53;;;;;;;1999.90;999.90;;;19.40;99.90;;;;;;4806609;29;20055;-69
2023/07/15 04:26:23;;;;;;;1999.90;999.90;;;19.40;99.90;;;;;;4806615;29;20419;-69
2023/07/15 04:28:52;;;;;;;1999.90;999.90;;;19.40;99.90;;;;;;4806531;29;20059;-69
2023/07/15 04:31:18;;;;;;;1999.90;999.90;;;19.40;99.90;;;;;;4806606;29;20142;-69
2023/07/15 04:33:46;;;;;;;1999.90;999.90;;;19.40;99.90;;;;;;4790574;29;20137;-69
2023/07/15 04:36:12;;;;;;;1999.90;999.90;;;19.30;99.90;;;;;;4806333;29;20066;-68
2023/07/15 04:38:38;;;;;;;1999.90;999.90;;;19.30;99.90;;;;;;4805541;29;20051;-69
2023/07/15 04:41:04;;;;;;;1999.90;999.90;;;19.30;99.90;;;;;;4806981;29;20480;-69
2023/07/15 04:43:29;;;;;;;1999.90;999.90;;;19.30;99.90;;;;;;4806834;29;20134;-69
2023/07/15 04:45:55;;;;;;;1999.90;999.90;;;19.40;99.90;;;;;;4820525;29;20059;-68
2023/07/15 04:48:23;;;;;;;1999.90;999.90;;;19.30;99.90;;;;;;4805203;29;20058;-68
2023/07/15 04:50:50;;;;;;;1999.90;999.90;;;19.30;99.90;;;;;;4806365;29;20066;-69
2023/07/15 04:53:16;;;;;;;1999.90;999.90;;;19.40;99.90;;;;;;4805903;29;20565;-69
2023/07/15 04:55:42;;;;;;;1999.90;999.90;;;19.40;99.90;;;;;;4806303;29;20059;-69
2023/07/15 04:58:09;;;;;;;1999.90;999.90;;;19.30;99.90;;;;;;4806241;29;20086;-68
2023/07/15 05:00:36;;;;;;;1999.90;999.90;;;19.40;99.90;;;;;;4806553;29;20057;-68
2023/07/15 05:03:04;;;;;;;1999.90;999.90;;;19.40;99.90;;;;;;4791229;29;20126;-68
2023/07/15 05:05:30;;;;;;;1999.90;999.90;;;19.40;99.90;;;;;;4806475;29;20050;-68
2023/07/15 05:08:01;;;;;;;1999.90;999.90;;;19.40;99.90;;;;;;4805281;29;20488;-68
2023/07/15 05:10:27;;;;;;;1999.90;999.90;;;19.50;99.90;;;;;;4806286;29;20090;-68
2023/07/15 05:12:53;;;;;;;1999.90;999.90;;;19.50;99.90;;;;;;4821095;29;20097;-68
2023/07/15 05:15:18;;;;;;;1999.90;999.90;;;19.60;99.90;;;;;;4806757;29;20416;-68
2023/07/15 05:17:44;;;;;;;1999.90;999.90;;;19.60;99.90;;;;;;4806129;29;20049;-69
2023/07/15 05:20:10;;;;;;;1999.90;999.90;;;19.60;99.90;;;;;;4805458;29;20054;-68
2023/07/15 05:22:36;;;;;;;1999.90;999.90;;;19.70;99.90;;;;;;4806139;29;20133;-68
2023/07/15 05:25:02;;;;;;;1999.90;999.90;;;19.70;99.90;;;;;;4806167;29;20142;-68
2023/07/15 05:27:28;;;;;;;1999.90;999.90;;;19.70;99.90;;;;;;4809383;29;20185;-68
2023/07/15 05:29:53;;;;;;;1999.90;999.90;;;19.80;99.90;;;;;;4809489;29;20059;-68
2023/07/15 05:32:19;;;;;;;1999.90;999.90;;;19.80;99.90;;;;;;4824287;29;20051;-69
2023/07/15 05:34:45;;;;;;;1999.90;999.90;;;19.80;99.90;;;;;;4809877;29;20053;-68
2023/07/15 05:37:10;;;;;;;1999.90;999.90;;;19.90;99.90;;;;;;4809744;29;20174;-68
2023/07/15 05:39:36;;;;;;;1999.90;999.90;;;19.90;99.90;;;;;;4823438;29;20062;-68
2023/07/15 05:42:02;;;;;;;1999.90;999.90;;;19.90;99.90;;;;;;4809513;29;20046;-68
2023/07/15 05:44:28;;;;;;;1999.90;999.90;;;19.90;99.90;;;;;;4809240;29;20066;-68
2023/07/15 05:46:54;;;;;;;1999.90;999.90;;;20.00;99.90;;;;;;4809211;29;20046;-68
2023/07/15 05:49:19;;;;;;;1999.90;999.90;;;20.00;99.90;;;;;;4809718;29;20058;-68
2023/07/15 05:51:45;;;;;;;1999.90;999.90;;;20.00;99.90;;;;;;4808055;29;20059;-68
2023/07/15 05:54:11;;;;;;;1999.90;999.90;;;20.10;99.90;;;;;;4808832;29;20074;-67
2023/07/15 05:56:36;;;;;;;1999.90;999.90;;;20.10;99.90;;;;;;4808937;29;20046;-67
2023/07/15 05:59:02;;;;;;;1999.90;999.90;;;20.20;99.90;;;;;;4809053;29;20051;-67
2023/07/15 06:01:28;;;;;;;1999.90;999.90;;;20.30;99.90;;;;;;4823032;29;20480;-67
2023/07/15 06:03:53;;;;;;;1999.90;999.90;;;20.30;99.90;;;;;;4809323;29;20051;-67
2023/07/15 06:06:19;;;;;;;1999.90;999.90;;;20.40;99.90;;;;;;4808829;29;20134;-67
2023/07/15 06:08:45;;;;;;;1999.90;999.90;;;20.40;99.90;;;;;;4809046;29;20062;-67
2023/07/15 06:11:11;;;;;;;1999.90;999.90;;;20.50;99.90;;;;;;4807840;29;20098;-68
2023/07/15 06:13:37;;;;;;;1999.90;999.90;;;20.50;99.90;;;;;;4808515;29;20093;-67
2023/07/15 06:16:03;;;;;;;1999.90;999.90;;;20.60;99.90;;;;;;4807620;29;20050;-67
2023/07/15 06:18:28;;;;;;;1999.90;999.90;;;20.70;99.90;;;;;;4822463;29;20138;-68
2023/07/15 06:20:55;;;;;;;1999.90;999.90;;;20.70;99.90;;;;;;4808660;29;20059;-68
2023/07/15 06:23:20;;;;;;;1999.90;999.90;;;20.80;99.90;;;;;;4807386;29;20094;-68
2023/07/15 06:25:46;;;;;;;1999.90;999.90;;;20.80;99.90;;;;;;4808375;29;20092;-67
2023/07/15 06:28:12;;;;;;;1999.90;999.90;;;21.10;99.90;;;;;;4809106;29;20481;-67
2023/07/15 06:30:37;;;;;;;1999.90;999.90;;;20.90;99.90;;;;;;4807517;29;20051;-67
2023/07/15 06:33:03;;;;;;;1999.90;999.90;;;21.00;99.90;;;;;;4822853;29;20054;-67
2023/07/15 06:35:29;;;;;;;1999.90;999.90;;;21.00;99.90;;;;;;4808583;29;20050;-67
2023/07/15 06:37:54;;;;;;;1999.90;999.90;;;21.10;99.90;;;;;;4807487;29;20504;-67
2023/07/15 06:40:20;;;;;;;1999.90;999.90;;;21.10;99.90;;;;;;4808534;29;20057;-67
2023/07/15 06:42:46;;;;;;;1999.90;999.90;;;21.20;99.90;;;;;;4808227;29;20461;-67
2023/07/15 06:45:13;;;;;;;1999.90;999.90;;;21.20;99.90;;;;;;4808215;29;20058;-67
2023/07/15 06:47:39;;;;;;;1999.90;999.90;;;21.30;99.90;;;;;;4807947;29;20066;-67
2023/07/15 06:50:05;;;;;;;1999.90;999.90;;;21.40;99.90;;;;;;4808792;29;20065;-67
2023/07/15 06:52:31;;;;;;;1999.90;999.90;;;21.40;99.90;;;;;;4808049;29;20142;-67
2023/07/15 06:54:57;;;;;;;1999.90;999.90;;;21.50;99.90;;;;;;4807939;29;20134;-67
2023/07/15 06:57:23;;;;;;;1999.90;999.90;;;21.50;99.90;;;;;;4806934;29;20046;-67
2023/07/15 06:59:48;;;;;;;1999.90;999.90;;;21.60;99.90;;;;;;4808368;29;20055;-67
2023/07/15 07:02:14;;;;;;;1999.90;999.90;;;21.70;99.90;;;;;;4807871;29;20055;-67
2023/07/15 07:04:40;;;;;;;1999.90;999.90;;;21.80;99.90;;;;;;4806699;29;20137;-67
2023/07/15 07:07:06;;;;;;;1999.90;999.90;;;21.80;99.90;;;;;;4808293;29;20471;-66
2023/07/15 07:09:31;;;;;;;1999.90;999.90;;;21.80;99.90;;;;;;4822440;29;20127;-67
2023/07/15 07:11:58;;;;;;;1999.90;999.90;;;21.90;99.90;;;;;;4808208;29;20059;-67
2023/07/15 07:14:23;;;;;;;1999.90;999.90;;;21.90;99.90;;;;;;4808049;29;20097;-67
2023/07/15 07:16:49;;;;;;;1999.90;999.90;;;22.00;99.90;;;;;;4807513;29;20085;-66
2023/07/15 07:19:15;;;;;;;1999.90;999.90;;;22.10;99.90;;;;;;4808129;29;20050;-67
2023/07/15 07:21:42;;;;;;;1999.90;999.90;;;22.10;99.90;;;;;;4807501;29;20050;-66
2023/07/15 07:24:09;;;;;;;1999.90;999.90;;;22.10;99.90;;;;;;4808253;29;20055;-66
2023/07/15 07:26:36;;;;;;;1999.90;999.90;;;22.20;99.90;;;;;;4807412;29;20046;-67
2023/07/15 07:29:02;;;;;;;1999.90;999.90;;;22.20;99.90;;;;;;4807408;29;20051;-67
2023/07/15 07:31:27;;;;;;;1999.90;999.90;;;22.30;99.90;;;;;;4821682;29;20063;-67
2023/07/15 07:33:53;;;;;;;1999.90;999.90;;;22.30;99.90;;;;;;4807554;29;20404;-67
2023/07/15 07:36:19;;;;;;;1999.90;999.90;;;22.40;99.90;;;;;;4807176;29;20507;-66
2023/07/15 07:38:45;;;;;;;1999.90;999.90;;;22.40;99.90;;;;;;4821731;29;20051;-67
2023/07/15 07:41:12;;;;;;;1999.90;999.90;;;22.50;99.90;;;;;;4807965;29;20081;-67
2023/07/15 07:43:39;;;;;;;1999.90;999.90;;;22.50;99.90;;;;;;4807307;29;20058;-68
2023/07/15 07:46:08;;;;;;;1999.90;999.90;;;22.50;99.90;;;;;;4806006;29;20073;-66
2023/07/15 07:48:34;;;;;;;1999.90;999.90;;;22.60;99.90;;;;;;4804810;29;20066;-67
2023/07/15 07:51:01;;;;;;;1999.90;999.90;;;22.60;99.90;;;;;;4807098;29;20491;-67
2023/07/15 07:53:27;;;;;;;1999.90;999.90;;;22.60;99.90;;;;;;4806946;29;20100;-67
2023/07/15 07:55:53;;;;;;;1999.90;999.90;;;22.70;99.90;;;;;;4805985;29;20100;-66
2023/07/15 07:58:19;;;;;;;1999.90;999.90;;;22.70;99.90;;;;;;4806835;29;20046;-67
2023/07/15 08:00:45;;;;;;;1999.90;999.90;;;22.70;99.90;;;;;;4790908;29;20111;-68
2023/07/15 08:03:11;;;;;;;1999.90;999.90;;;22.80;99.90;;;;;;4806908;29;20057;-67
2023/07/15 08:05:46;;;;;;;1999.90;999.90;;;22.90;99.90;;;;;;4805947;29;20046;-67
2023/07/15 08:08:13;;;;;;;1999.90;999.90;;;22.90;99.90;;;;;;4807056;29;20168;-67
2023/07/15 08:10:41;;;;;;;1999.90;999.90;;;22.90;99.90;;;;;;4820807;29;20097;-67
2023/07/15 08:13:07;;;;;;;1999.90;999.90;;;23.00;99.90;;;;;;4807193;29;20051;-66
2023/07/15 08:15:37;;;;;;;1999.90;999.90;;;23.00;99.90;;;;;;4806813;29;20043;-68
2023/07/15 08:18:04;;;;;;;1999.90;999.90;;;23.10;99.90;;;;;;4807407;29;20366;-67
2023/07/15 08:20:30;;;;;;;1999.90;999.90;;;23.10;99.90;;;;;;4805902;29;20540;-68
2023/07/15 08:22:57;;;;;;;1999.90;999.90;;;23.20;99.90;;;;;;4805355;29;20093;-67
2023/07/15 08:25:22;;;;;;;1999.90;999.90;;;23.20;99.90;;;;;;4807340;29;20043;-67
2023/07/15 08:27:48;;;;;;;1999.90;999.90;;;23.30;99.90;;;;;;4821718;29;20567;-68
2023/07/15 08:30:14;;;;;;;1999.90;999.90;;;23.40;99.90;;;;;;4806941;29;20484;-67
2023/07/15 08:32:39;;;;;;;1999.90;999.90;;;23.40;99.90;;;;;;4806558;29;20051;-68
2023/07/15 08:35:05;;;;;;;1999.90;999.90;;;23.50;99.90;;;;;;4807115;29;20070;-67
2023/07/15 08:37:32;;;;;;;1999.90;999.90;;;23.50;99.90;;;;;;4820536;29;20488;-67
2023/07/15 08:39:58;;;;;;;1999.90;999.90;;;23.50;99.90;;;;;;4806528;29;20111;-67
2023/07/15 08:42:24;;;;;;;1999.90;999.90;;;23.60;99.90;;;;;;4820720;29;20058;-67
2023/07/15 08:44:51;;;;;;;1999.90;999.90;;;23.60;99.90;;;;;;4805789;29;20053;-67
2023/07/15 08:47:24;;;;;;;1999.90;999.90;;;23.70;99.90;;;;;;4806449;29;20051;-67
2023/07/15 08:49:53;;;;;;;1999.90;999.90;;;23.70;99.90;;;;;;4806171;29;20427;-67
2023/07/15 08:52:21;;;;;;;1999.90;999.90;;;23.80;99.90;;;;;;4805776;29;20124;-67
2023/07/15 08:54:53;;;;;;;1999.90;999.90;;;23.90;99.90;;;;;;4806518;29;20079;-67
2023/07/15 08:57:22;;;;;;;1999.90;999.90;;;24.00;99.90;;;;;;4807192;29;20374;-67
2023/07/15 08:59:49;;;;;;;1999.90;999.90;;;24.00;99.90;;;;;;4806775;29;20134;-67
2023/07/15 09:02:15;;;;;;;1999.90;999.90;;;24.00;99.90;;;;;;4809467;29;20046;-68
2023/07/15 09:04:40;;;;;;;1999.90;999.90;;;24.10;99.90;;;;;;4823853;29;20046;-68
2023/07/15 09:07:07;;;;;;;1999.90;999.90;;;24.10;99.90;;;;;;4809696;29;20057;-67
2023/07/15 09:09:37;;;;;;;1999.90;999.90;;;24.10;99.90;;;;;;4810516;29;20050;-67
2023/07/15 09:12:05;;;;;;;1999.90;999.90;;;24.10;99.90;;;;;;4810492;29;20050;-67
2023/07/15 09:14:31;;;;;;;1999.90;999.90;;;24.10;99.90;;;;;;4808979;29;20065;-67
2023/07/15 09:16:59;;;;;;;1999.90;999.90;;;24.20;99.90;;;;;;4809510;29;20138;-67
2023/07/15 09:19:28;;;;;;;1999.90;999.90;;;24.20;99.90;;;;;;4809717;29;20059;-68
2023/07/15 09:22:03;;;;;;;1999.90;999.90;;;24.10;99.90;;;;;;4808847;29;20051;-67
2023/07/15 09:24:31;;;;;;;1999.90;999.90;;;24.10;99.90;;;;;;4809133;29;20062;-67
2023/07/15 09:26:59;;;;;;;1999.90;999.90;;;24.10;99.90;;;;;;4809455;29;20504;-70
2023/07/15 09:29:25;;;;;;;1999.90;999.90;;;24.10;99.90;;;;;;4809377;29;20078;-68
2023/07/15 09:31:51;;;;;;;1999.90;999.90;;;24.10;99.90;;;;;;4823785;29;20464;-67
2023/07/15 09:34:18;;;;;;;1999.90;999.90;;;24.20;99.90;;;;;;4810196;29;20055;-68
2023/07/15 09:36:44;;;;;;;1999.90;999.90;;;24.20;99.90;;;;;;4809379;29;20479;-68
2023/07/15 09:39:19;;;;;;;1999.90;999.90;;;24.20;99.90;;;;;;4809274;29;20522;-68
2023/07/15 09:42:02;;;;;;;1999.90;999.90;;;24.20;99.90;;;;;;4810111;29;20054;-67
2023/07/15 09:44:37;;;;;;;1999.90;999.90;;;24.20;99.90;;;;;;4809415;29;20114;-68
2023/07/15 09:47:04;;;;;;;1999.90;999.90;;;24.10;99.90;;;;;;4809716;29;20054;-68
2023/07/15 09:49:31;;;;;;;1999.90;999.90;;;24.20;99.90;;;;;;4822827;29;20067;-67
2023/07/15 09:52:01;;;;;;;1999.90;999.90;;;24.30;99.90;;;;;;4809137;29;20069;-67
2023/07/15 09:54:30;;;;;;;1999.90;999.90;;;24.30;99.90;;;;;;4808349;29;20039;-67
2023/07/15 09:57:02;;;;;;;1999.90;999.90;;;24.40;99.90;;;;;;4809099;29;20050;-67
2023/07/15 09:59:34;;;;;;;1999.90;999.90;;;24.40;99.90;;;;;;4809667;29;20059;-67
2023/07/15 10:02:07;;;;;;;1999.90;999.90;;;24.40;99.90;;;;;;4807724;29;20576;-68
2023/07/15 10:04:44;;;;;;;1999.90;999.90;;;24.50;99.90;;;;;;4809073;29;20051;-67
2023/07/15 10:07:11;;;;;;;1999.90;999.90;;;24.50;99.90;;;;;;4793816;29;20062;-68
2023/07/15 10:09:38;;;;;;;1999.90;999.90;;;24.60;99.90;;;;;;4808548;29;20141;-67
2023/07/15 10:12:05;;;;;;;1999.90;999.90;;;24.70;99.90;;;;;;4808209;29;20059;-68
2023/07/15 10:14:32;;;;;;;1999.90;999.90;;;24.80;99.90;;;;;;4808862;29;20059;-67
2023/07/15 10:17:12;;;;;;;1999.90;999.90;;;24.90;99.90;;;;;;4808771;29;20151;-67
2023/07/15 10:19:46;;;;;;;1999.90;999.90;;;25.10;99.90;;;;;;4808697;29;20134;-68
2023/07/15 10:22:13;;;;;;;1999.90;999.90;;;25.20;99.90;;;;;;4808464;29;20062;-67
2023/07/15 10:24:53;;;;;;;1999.90;999.90;;;25.30;99.90;;;;;;4808698;29;20518;-66
2023/07/15 10:27:18;;;;;;;1999.90;999.90;;;25.30;99.90;;;;;;4808589;29;20058;-67
2023/07/15 10:29:44;;;;;;;1999.90;999.90;;;25.30;99.90;;;;;;4808507;29;20054;-67
2023/07/15 10:32:14;;;;;;;1999.90;999.90;;;25.30;99.90;;;;;;4808505;29;20431;-75
2023/07/15 10:34:51;;;;;;;1999.90;999.90;;;25.30;99.90;;;;;;4793432;29;20062;-72
2023/07/15 10:37:18;;;;;;;1999.90;999.90;;;25.30;99.90;;;;;;4807195;29;20055;-72
2023/07/15 10:39:47;;;;;;;1999.90;999.90;;;25.30;99.90;;;;;;4807786;29;20055;-72
2023/07/15 10:42:15;;;;;;;1999.90;999.90;;;25.40;99.90;;;;;;4808268;29;20055;-71
2023/07/15 10:44:54;;;;;;;1999.90;999.90;;;25.40;99.90;;;;;;4807270;29;20119;-72
2023/07/15 10:47:20;;;;;;;1999.90;999.90;;;25.50;99.90;;;;;;4808282;29;20046;-72
2023/07/15 10:49:48;;;;;;;1999.90;999.90;;;25.60;99.90;;;;;;4808999;29;20396;-73
2023/07/15 10:52:19;;;;;;;1999.90;999.90;;;25.60;99.90;;;;;;4808151;29;20063;-75
2023/07/15 10:54:45;;;;;;;1999.90;999.90;;;25.60;99.90;;;;;;4806953;29;20058;-71
2023/07/15 10:57:14;;;;;;;1999.90;999.90;;;25.60;99.90;;;;;;4808793;29;20055;-73
2023/07/15 10:59:47;;;;;;;1999.90;999.90;;;25.60;99.90;;;;;;4807109;29;20507;-71
2023/07/15 11:02:13;;;;;;;1999.90;999.90;;;25.60;99.90;;;;;;4807324;29;20058;-70
2023/07/15 11:04:40;;;;;;;1999.90;999.90;;;25.60;99.90;;;;;;4822116;29;20050;-72
2023/07/15 11:07:07;;;;;;;1999.90;999.90;;;25.50;99.90;;;;;;4807827;29;20061;-73
2023/07/15 11:09:38;;;;;;;1999.90;999.90;;;25.50;99.90;;;;;;4807031;29;20183;-71
2023/07/15 11:12:09;;;;;;;1999.90;999.90;;;25.50;99.90;;;;;;4822212;29;20432;-71
2023/07/15 11:14:39;;;;;;;1999.90;999.90;;;25.60;99.90;;;;;;4808685;29;20107;-69
2023/07/15 11:17:06;;;;;;;1999.90;999.90;;;25.70;99.90;;;;;;4806751;29;20496;-71
2023/07/15 11:19:32;;;;;;;1999.90;999.90;;;25.70;99.90;;;;;;4807506;29;20092;-70
2023/07/15 11:21:59;;;;;;;1999.90;999.90;;;25.70;99.90;;;;;;4806797;29;20086;-70
2023/07/15 11:24:26;;;;;;;1999.90;999.90;;;25.70;99.90;;;;;;4790725;29;20061;-71
2023/07/15 11:26:52;;;;;;;1999.90;999.90;;;25.60;99.90;;;;;;4807493;29;20055;-71
2023/07/15 11:29:22;;;;;;;1999.90;999.90;;;25.50;99.90;;;;;;4806191;29;20061;-71
2023/07/15 11:31:53;;;;;;;1999.90;999.90;;;25.50;99.90;;;;;;4807938;29;20058;-73
2023/07/15 11:34:21;;;;;;;1999.90;999.90;;;25.50;99.90;;;;;;4807096;29;20054;-74
2023/07/15 11:36:49;;;;;;;1999.90;999.90;;;25.50;99.90;;;;;;4807459;29;20057;-76
2023/07/15 11:39:16;;;;;;;1999.90;999.90;;;25.50;99.90;;;;;;4806979;29;20053;-71
2023/07/15 11:41:43;;;;;;;1999.90;999.90;;;25.50;99.90;;;;;;4806227;29;20146;-70
2023/07/15 11:44:09;;;;;;;1999.90;999.90;;;25.60;99.90;;;;;;4806972;29;20078;-71
2023/07/15 11:46:36;;;;;;;1999.90;999.90;;;25.60;99.90;;;;;;4821918;29;20414;-72
2023/07/15 11:49:03;;;;;;;1999.90;999.90;;;25.70;99.90;;;;;;4805937;29;20112;-72
2023/07/15 11:51:34;;;;;;;1999.90;999.90;;;25.70;99.90;;;;;;4806616;29;20492;-72
2023/07/15 11:54:00;;;;;;;1999.90;999.90;;;25.70;99.90;;;;;;4806364;29;20588;-72
2023/07/15 11:56:46;;;;;;;1999.90;999.90;;;25.70;99.90;;;;;;4821160;29;20472;-74
2023/07/15 11:59:31;;;;;;;1999.90;999.90;;;25.80;99.90;;;;;;4807316;29;20065;-73